Time;durP1;ratioP1;P1;durP2;ratioP2;P2;SDS_P1;SDS_P2;PMS_P1;PMS_P2;Temp;Humidity;BMP_temperature;BMP_pressure;BME280_temperature;BME280_humidity;BME280_pressure;Samples;Min_cycle;Max_cycle;Signal;HPM_P1;HPM_P2
2023/05/25 00:01:04;;;;;;;;;38.75;33.50;;;;;20.00;52.88;99282.59;5047696;28;9061;-80
2023/05/25 00:03:34;;;;;;;;;31.75;29.75;;;;;20.02;52.68;99288.69;5031308;28;8897;-81
2023/05/25 00:06:04;;;;;;;;;30.50;29.25;;;;;20.08;52.30;99296.34;5027197;28;8862;-81
2023/05/25 00:08:33;;;;;;;;;32.50;30.25;;;;;20.09;52.31;99306.03;5027810;28;8856;-81
2023/05/25 00:11:03;;;;;;;;;34.00;30.50;;;;;20.13;52.29;99309.38;5011330;28;8848;-81
2023/05/25 00:13:32;;;;;;;;;34.25;32.00;;;;;20.15;52.08;99314.59;5014142;28;8888;-80
2023/05/25 00:16:01;;;;;;;;;31.25;31.00;;;;;20.20;52.04;99317.81;5056408;28;9024;-80
2023/05/25 00:18:30;;;;;;;;;31.00;30.75;;;;;20.14;52.15;99319.09;5036882;28;8953;-80
2023/05/25 00:21:04;;;;;;;;;34.00;31.75;;;;;20.15;52.17;99314.59;5033571;28;8860;-80
2023/05/25 00:23:33;;;;;;;;;33.50;31.75;;;;;20.18;52.40;99323.28;5031773;28;8869;-80
2023/05/25 00:26:04;;;;;;;;;29.75;28.75;;;;;20.22;52.24;99323.94;5047683;28;8857;-80
2023/05/25 00:28:33;;;;;;;;;41.25;34.75;;;;;20.05;52.46;99325.03;5047342;28;8884;-81
2023/05/25 00:31:02;;;;;;;;;35.50;31.00;;;;;20.04;52.49;99320.63;5031545;28;8889;-81
2023/05/25 00:33:30;;;;;;;;;37.50;33.75;;;;;20.05;52.37;99325.88;5024806;28;8867;-81
2023/05/25 00:35:59;;;;;;;;;35.50;32.25;;;;;20.06;52.40;99324.06;4978606;28;8861;-79
2023/05/25 00:38:28;;;;;;;;;32.00;31.25;;;;;20.05;52.37;99323.19;5023959;28;8875;-82
2023/05/25 00:40:58;;;;;;;;;35.75;33.50;;;;;19.97;52.34;99314.84;5013110;28;8857;-82
2023/05/25 00:43:28;;;;;;;;;35.25;33.25;;;;;19.95;52.75;99316.72;5029582;28;8829;-82
2023/05/25 00:45:58;;;;;;;;;33.00;31.75;;;;;19.92;52.76;99322.28;5046694;28;8864;-81
2023/05/25 00:48:27;;;;;;;;;34.50;32.25;;;;;19.91;52.72;99317.88;5030538;28;8861;-84
2023/05/25 00:50:58;;;;;;;;;31.50;30.50;;;;;19.88;52.65;99316.28;5044605;28;8849;-81
2023/05/25 00:53:27;;;;;;;;;33.00;31.25;;;;;19.83;52.82;99321.03;5083424;28;9454;-80
2023/05/25 00:56:03;;;;;;;;;36.50;31.50;;;;;19.90;52.65;99322.38;5072608;28;8854;-81
2023/05/25 00:58:36;;;;;;;;;28.50;27.50;;;;;19.85;53.02;99324.47;5046678;28;8989;-81
2023/05/25 01:01:10;;;;;;;;;37.00;33.75;;;;;19.80;53.29;99315.03;5060582;28;8849;-81
2023/05/25 01:03:45;;;;;;;;;35.75;32.25;;;;;19.63;53.59;99318.75;5060289;28;8904;-82
2023/05/25 01:06:15;;;;;;;;;37.50;34.25;;;;;19.36;54.58;99330.13;5017681;28;8843;-81
2023/05/25 01:08:50;;;;;;;;;37.50;32.75;;;;;19.29;54.88;99328.78;5049669;28;8869;-82
2023/05/25 01:11:25;;;;;;;;;33.00;30.50;;;;;19.04;55.54;99332.94;5065286;28;8862;-82
2023/05/25 01:13:56;;;;;;;;;31.60;29.80;;;;;18.86;56.47;99331.38;5036831;28;8873;-81
2023/05/25 01:16:28;;;;;;;;;35.50;33.25;;;;;18.99;55.84;99329.72;5032531;28;8837;-82
2023/05/25 01:18:57;;;;;;;;;31.25;29.50;;;;;18.91;56.20;99331.94;5000862;28;8853;-81
2023/05/25 01:21:36;;;;;;;;;38.75;34.00;;;;;19.05;55.95;99326.66;5015721;28;8893;-81
2023/05/25 01:24:16;;;;;;;;;40.50;36.00;;;;;19.13;55.57;99329.72;5045219;28;8855;-81
2023/05/25 01:26:53;;;;;;;;;31.60;29.20;;;;;19.22;55.36;99327.47;5054977;28;8802;-82
2023/05/25 01:29:26;;;;;;;;;37.40;33.40;;;;;19.20;55.42;99324.06;5055415;28;8914;-82
2023/05/25 01:31:57;;;;;;;;;33.50;32.25;;;;;19.27;54.92;99328.91;5041874;28;8990;-82
2023/05/25 01:34:28;;;;;;;;;34.00;32.25;;;;;19.27;54.95;99317.38;5078569;28;9957;-82
2023/05/25 01:37:00;;;;;;;;;34.50;32.50;;;;;19.39;54.71;99316.63;5062374;28;8853;-79
2023/05/25 01:39:29;;;;;;;;;32.50;30.75;;;;;19.47;54.47;99321.50;5046118;28;8868;-81
2023/05/25 01:41:58;;;;;;;;;36.50;33.00;;;;;19.49;54.23;99328.44;5063748;28;8858;-82
2023/05/25 01:44:28;;;;;;;;;32.40;29.60;;;;;19.59;54.24;99325.25;5039050;28;9616;-79
2023/05/25 01:47:03;;;;;;;;;37.25;33.25;;;;;19.75;53.88;99323.34;5052771;28;8844;-80
2023/05/25 01:49:42;;;;;;;;;33.25;31.50;;;;;19.84;53.47;99322.75;5051312;28;8885;-81
2023/05/25 01:52:22;;;;;;;;;34.00;31.00;;;;;19.94;53.21;99324.84;5064670;28;8842;-80
2023/05/25 01:54:55;;;;;;;;;26.50;25.75;;;;;19.90;53.12;99329.53;5084056;28;8841;-80
2023/05/25 01:57:27;;;;;;;;;30.00;29.50;;;;;19.90;53.23;99332.19;5059681;28;8939;-81
2023/05/25 01:59:59;;;;;;;;;34.00;32.75;;;;;19.75;53.62;99336.66;5029100;28;8878;-82
2023/05/25 02:02:29;;;;;;;;;32.75;30.25;;;;;19.75;53.51;99336.66;5044754;28;8849;-81
2023/05/25 02:04:58;;;;;;;;;32.20;30.80;;;;;19.72;53.67;99336.84;5031590;28;8861;-79
2023/05/25 02:07:29;;;;;;;;;38.75;33.00;;;;;19.70;53.55;99338.75;5064815;28;8843;-81
2023/05/25 02:09:57;;;;;;;;;30.50;28.25;;;;;19.28;54.79;99343.94;5029148;28;10016;-82
2023/05/25 02:12:27;;;;;;;;;36.25;32.50;;;;;18.82;56.21;99349.34;5047227;28;8853;-82
2023/05/25 02:14:56;;;;;;;;;30.60;29.40;;;;;18.87;56.32;99341.91;5052297;28;8979;-80
2023/05/25 02:17:27;;;;;;;;;35.00;32.25;;;;;18.74;56.72;99346.22;5013352;28;9654;-81
2023/05/25 02:19:56;;;;;;;;;34.50;31.75;;;;;18.22;58.71;99351.88;4998092;28;8852;-80
2023/05/25 02:22:25;;;;;;;;;34.00;32.75;;;;;18.44;57.84;99351.50;5057918;28;9634;-80
2023/05/25 02:24:55;;;;;;;;;33.75;32.75;;;;;18.13;59.16;99351.41;5046148;28;8869;-81
2023/05/25 02:27:24;;;;;;;;;36.75;34.50;;;;;17.85;59.94;99359.16;5062545;28;8869;-80
2023/05/25 02:29:53;;;;;;;;;37.50;34.00;;;;;17.45;61.52;99359.50;5036344;28;9651;-80
2023/05/25 02:32:28;;;;;;;;;37.00;33.00;;;;;17.53;61.31;99359.97;5041327;28;8895;-78
2023/05/25 02:34:57;;;;;;;;;35.75;33.75;;;;;17.12;62.51;99362.94;5052732;28;8956;-81
2023/05/25 02:37:26;;;;;;;;;36.00;32.25;;;;;17.60;60.73;99367.63;5046522;28;8865;-81
2023/05/25 02:39:56;;;;;;;;;33.50;32.00;;;;;17.75;60.18;99358.81;5032491;28;8877;-80
2023/05/25 02:42:26;;;;;;;;;36.50;33.75;;;;;17.83;59.34;99369.88;5053051;28;8835;-81
2023/05/25 02:44:54;;;;;;;;;36.50;32.50;;;;;18.00;58.98;99362.81;5037781;28;8950;-79
2023/05/25 02:47:24;;;;;;;;;35.25;32.25;;;;;18.11;58.57;99363.09;5037512;28;8853;-81
2023/05/25 02:49:53;;;;;;;;;38.50;34.50;;;;;17.49;60.71;99362.84;5052965;28;8880;-84
2023/05/25 02:52:24;;;;;;;;;41.00;35.75;;;;;17.47;60.96;99368.25;5068019;28;8877;-83
2023/05/25 02:54:53;;;;;;;;;36.00;34.00;;;;;17.60;60.20;99375.59;5037863;28;8865;-83
2023/05/25 02:57:31;;;;;;;;;35.80;33.60;;;;;17.77;59.55;99365.75;4998552;28;8880;-85
2023/05/25 03:00:00;;;;;;;;;36.75;33.25;;;;;17.88;59.00;99365.19;5010726;28;8920;-84
2023/05/25 03:02:30;;;;;;;;;41.75;35.50;;;;;17.65;59.92;99370.91;5032554;28;8866;-83
2023/05/25 03:04:59;;;;;;;;;34.00;32.75;;;;;17.43;60.96;99381.78;5062689;28;8885;-80
2023/05/25 03:07:32;;;;;;;;;38.00;35.00;;;;;17.75;59.67;99378.28;5046767;28;8838;-82
2023/05/25 03:10:02;;;;;;;;;42.00;36.50;;;;;17.92;58.88;99385.34;5054806;28;8853;-81
2023/05/25 03:12:32;;;;;;;;;33.00;30.25;;;;;18.05;58.53;99388.25;5062828;28;8842;-80
2023/05/25 03:15:01;;;;;;;;;36.00;32.75;;;;;17.50;60.73;99394.66;5018241;28;9727;-82
2023/05/25 03:17:30;;;;;;;;;39.75;33.75;;;;;16.96;63.00;99401.81;5023495;28;8873;-83
2023/05/25 03:19:59;;;;;;;;;39.00;34.50;;;;;16.56;64.73;99395.81;5057000;28;9615;-82
2023/05/25 03:22:28;;;;;;;;;42.50;35.50;;;;;16.17;66.41;99384.34;5036218;28;8844;-82
2023/05/25 03:24:58;;;;;;;;;24.00;24.00;;;;;16.01;67.59;99393.94;5065344;28;8966;-82
2023/05/25 03:27:27;;;;;;;;;42.25;36.00;;;;;16.18;66.70;99398.47;5026128;28;8845;-82
2023/05/25 03:29:57;;;;;;;;;44.50;37.75;;;;;16.43;65.73;99398.16;5005452;28;8857;-81
2023/05/25 03:32:26;;;;;;;;;44.25;38.50;;;;;16.76;64.44;99395.72;5024025;28;8853;-81
2023/05/25 03:34:55;;;;;;;;;42.75;37.25;;;;;16.56;65.43;99395.81;4972673;28;8881;-80
2023/05/25 03:37:24;;;;;;;;;42.00;36.50;;;;;16.53;65.54;99398.59;4953872;28;8860;-79
2023/05/25 03:39:53;;;;;;;;;49.25;41.00;;;;;16.65;64.88;99398.03;4920749;29;9021;-81
2023/05/25 03:42:22;;;;;;;;;48.25;39.00;;;;;16.83;64.26;99395.41;4877304;29;9081;-80
2023/05/25 03:44:51;;;;;;;;;47.50;40.25;;;;;16.89;63.93;99397.75;4893076;29;9764;-82
2023/05/25 03:47:21;;;;;;;;;45.25;37.00;;;;;17.20;62.86;99391.75;4877583;29;8882;-81
2023/05/25 03:49:50;;;;;;;;;52.25;43.50;;;;;17.27;62.36;99393.22;4877657;29;8969;-80
2023/05/25 03:52:19;;;;;;;;;47.00;40.50;;;;;16.70;65.01;99403.09;4880052;29;8950;-81
2023/05/25 03:54:49;;;;;;;;;44.75;38.00;;;;;16.77;64.85;99405.38;4881890;29;9031;-80
2023/05/25 03:57:18;;;;;;;;;50.50;42.00;;;;;16.79;64.81;99408.81;4839400;29;8889;-82
2023/05/25 03:59:47;;;;;;;;;48.00;40.25;;;;;16.71;65.18;99410.13;4916445;28;8906;-81
2023/05/25 04:02:16;;;;;;;;;49.50;41.75;;;;;16.60;65.45;99414.16;4941755;28;9581;-81
2023/05/25 04:04:50;;;;;;;;;48.25;40.25;;;;;16.49;66.22;99418.25;4904924;29;8865;-81
2023/05/25 04:07:20;;;;;;;;;48.00;41.25;;;;;16.58;65.61;99421.31;4925378;28;8959;-81
2023/05/25 04:09:48;;;;;;;;;45.25;39.25;;;;;16.25;66.81;99429.06;4908379;28;9722;-83
2023/05/25 04:12:17;;;;;;;;;46.75;39.25;;;;;16.39;66.40;99429.28;4990388;28;8966;-81
2023/05/25 04:14:46;;;;;;;;;49.25;40.25;;;;;16.78;65.21;99419.53;5052800;28;8946;-81
2023/05/25 04:17:16;;;;;;;;;43.75;36.25;;;;;17.21;63.55;99422.69;5065317;28;8855;-81
2023/05/25 04:19:46;;;;;;;;;42.25;35.50;;;;;17.14;63.48;99429.25;5032191;28;8866;-81
2023/05/25 04:22:16;;;;;;;;;38.50;34.50;;;;;17.38;62.32;99420.09;5067225;28;8838;-80
2023/05/25 04:24:45;;;;;;;;;45.00;36.00;;;;;17.37;62.41;99434.28;5045795;28;8899;-83
2023/05/25 04:27:14;;;;;;;;;38.50;34.75;;;;;17.68;61.22;99424.72;4994948;28;8854;-81
2023/05/25 04:29:43;;;;;;;;;37.75;34.00;;;;;17.78;60.79;99436.63;5035254;28;8879;-82
2023/05/25 04:32:28;;;;;;;;;43.75;37.25;;;;;17.68;60.64;99442.47;5046052;28;8880;-81
2023/05/25 04:35:19;;;;;;;;;44.00;36.25;;;;;17.14;62.75;99445.19;5054089;28;8864;-82
2023/05/25 04:37:50;;;;;;;;;43.25;35.75;;;;;17.12;62.53;99447.06;5037499;28;8853;-81
2023/05/25 04:40:20;;;;;;;;;36.75;33.75;;;;;17.57;61.18;99451.00;5060402;28;8976;-82
2023/05/25 04:42:52;;;;;;;;;36.50;33.75;;;;;17.44;61.14;99449.91;5035138;28;8841;-81
2023/05/25 04:45:22;;;;;;;;;41.75;34.25;;;;;17.13;61.89;99460.25;5060379;28;8893;-84
2023/05/25 04:47:52;;;;;;;;;36.25;33.25;;;;;16.76;63.54;99467.38;5052437;28;8846;-82
2023/05/25 04:50:23;;;;;;;;;28.60;26.40;;;;;16.22;64.75;99469.84;5068537;28;8892;-81
2023/05/25 04:52:53;;;;;;;;;34.00;32.00;;;;;16.50;64.31;99471.25;5015526;28;8977;-81
2023/05/25 04:55:22;;;;;;;;;33.00;30.80;;;;;16.17;64.55;99478.94;4994632;28;8872;-82
2023/05/25 04:57:52;;;;;;;;;25.60;24.00;;;;;16.01;65.48;99481.44;5009967;28;8855;-80
2023/05/25 05:00:21;;;;;;;;;31.00;25.60;;;;;15.98;65.72;99485.09;5010705;28;9604;-83
2023/05/25 05:02:55;;;;;;;;;27.40;27.00;;;;;15.99;65.09;99480.63;5010927;28;8883;-83
2023/05/25 05:05:25;;;;;;;;;30.80;29.60;;;;;16.11;65.31;99481.88;5010868;28;8856;-82
2023/05/25 05:07:56;;;;;;;;;27.80;26.80;;;;;16.64;62.90;99486.53;5005946;28;8947;-82
2023/05/25 05:10:26;;;;;;;;;27.40;25.20;;;;;17.01;60.83;99484.78;5013802;28;8995;-81
2023/05/25 05:12:58;;;;;;;;;30.40;28.20;;;;;16.28;63.20;99489.91;5030462;28;8964;-82
2023/05/25 05:15:27;;;;;;;;;28.40;27.20;;;;;16.38;63.17;99488.59;5024317;28;8865;-81
2023/05/25 05:17:57;;;;;;;;;25.60;22.80;;;;;17.09;60.60;99495.03;5046677;28;8853;-82
2023/05/25 05:20:27;;;;;;;;;29.80;26.80;;;;;17.16;59.93;99492.00;5029478;28;8849;-82
2023/05/25 05:22:56;;;;;;;;;28.40;27.20;;;;;17.18;59.69;99503.41;5029858;28;8938;-82
2023/05/25 05:25:25;;;;;;;;;29.40;29.00;;;;;16.69;61.30;99504.91;5081268;28;8896;-82
2023/05/25 05:27:55;;;;;;;;;26.60;25.80;;;;;17.06;60.43;99504.00;4978840;28;8863;-79
2023/05/25 05:30:26;;;;;;;;;23.20;23.00;;;;;17.01;60.72;99511.34;5009995;28;8972;-81
2023/05/25 05:32:56;;;;;;;;;26.80;23.60;;;;;17.48;59.13;99507.31;4990303;28;8838;-83
2023/05/25 05:35:31;;;;;;;;;19.20;17.80;;;;;16.65;61.48;99501.53;4990425;28;9005;-82
2023/05/25 05:38:10;;;;;;;;;27.60;25.00;;;;;17.35;59.46;99496.44;5000217;28;8847;-81
2023/05/25 05:40:39;;;;;;;;;30.20;26.80;;;;;17.54;58.78;99504.34;4996214;28;8851;-80
2023/05/25 05:43:11;;;;;;;;;24.80;22.80;;;;;17.83;57.64;99500.16;5007876;28;8858;-82
2023/05/25 05:45:40;;;;;;;;;26.20;26.20;;;;;18.28;56.69;99501.38;5025704;28;8872;-80
2023/05/25 05:48:09;;;;;;;;;22.20;22.20;;;;;17.54;58.89;99502.53;5026047;28;8875;-81
2023/05/25 05:50:40;;;;;;;;;25.20;24.80;;;;;17.15;60.30;99508.00;4985938;28;9753;-74
2023/05/25 05:53:12;;;;;;;;;33.40;31.80;;;;;16.97;61.32;99505.31;5005469;28;8869;-78
2023/05/25 05:55:41;;;;;;;;;24.40;22.60;;;;;16.51;62.79;99502.19;5010666;28;8875;-72
2023/05/25 05:58:10;;;;;;;;;33.20;28.40;;;;;16.59;62.89;99507.97;5012849;28;8990;-73
2023/05/25 06:00:39;;;;;;;;;27.80;25.80;;;;;16.84;62.30;99513.94;5065339;28;8854;-71
2023/05/25 06:03:09;;;;;;;;;28.25;27.00;;;;;16.49;63.75;99517.28;5059454;28;8889;-74
2023/05/25 06:05:40;;;;;;;;;26.40;24.80;;;;;16.77;62.70;99516.84;5063799;28;8862;-72
2023/05/25 06:08:09;;;;;;;;;26.80;26.20;;;;;16.47;63.92;99520.94;5063536;28;8850;-72
2023/05/25 06:10:38;;;;;;;;;25.20;23.60;;;;;17.12;61.75;99514.31;5043672;28;8945;-72
2023/05/25 06:13:07;;;;;;;;;27.00;25.60;;;;;17.34;60.68;99516.84;5040305;28;8850;-72
2023/05/25 06:15:36;;;;;;;;;26.60;26.20;;;;;17.63;59.53;99508.31;5063177;28;9005;-71
2023/05/25 06:18:10;;;;;;;;;31.40;26.40;;;;;17.08;61.18;99520.72;5033158;28;8834;-71
2023/05/25 06:20:40;;;;;;;;;30.00;29.00;;;;;16.72;62.74;99518.00;5065669;28;9011;-72
2023/05/25 06:23:12;;;;;;;;;29.20;28.00;;;;;16.95;62.30;99511.63;5015144;28;8893;-72
2023/05/25 06:25:41;;;;;;;;;30.00;28.00;;;;;17.29;61.29;99518.84;5065557;28;8878;-71
2023/05/25 06:28:11;;;;;;;;;27.20;24.40;;;;;17.83;59.47;99520.59;5065478;28;8881;-73
2023/05/25 06:30:39;;;;;;;;;25.80;25.80;;;;;18.16;57.98;99521.53;5058331;28;8951;-72
2023/05/25 06:33:08;;;;;;;;;31.00;28.75;;;;;17.76;59.39;99512.94;5043749;28;8866;-72
2023/05/25 06:35:37;;;;;;;;;23.60;21.40;;;;;17.85;59.07;99513.41;5043983;28;8912;-72
2023/05/25 06:38:08;;;;;;;;;25.80;23.60;;;;;17.56;59.86;99521.06;5026687;28;8878;-72
2023/05/25 06:40:36;;;;;;;;;30.20;28.60;;;;;18.15;58.00;99529.59;4997566;28;8874;-72
2023/05/25 06:43:05;;;;;;;;;20.80;16.60;;;;;17.69;59.80;99518.66;5047536;28;8856;-75
2023/05/25 06:45:53;;;;;;;;;22.80;21.80;;;;;18.58;57.35;99515.78;5047074;28;8872;-72
2023/05/25 06:48:23;;;;;;;;;20.80;19.80;;;;;18.92;56.03;99520.13;5008771;28;8858;-75
2023/05/25 06:50:52;;;;;;;;;27.40;26.20;;;;;18.96;55.30;99523.47;5041333;28;8844;-83
2023/05/25 06:53:23;;;;;;;;;25.40;24.20;;;;;18.55;57.08;99514.13;5046043;28;8843;-86
2023/05/25 06:55:52;;;;;;;;;23.80;22.20;;;;;18.92;56.14;99525.44;5035082;28;8905;-84
2023/05/25 06:58:21;;;;;;;;;27.20;26.60;;;;;19.53;54.30;99515.75;5020635;28;8867;-85
2023/05/25 07:00:50;;;;;;;;;21.20;20.80;;;;;19.85;52.84;99523.66;5003658;28;8836;-84
2023/05/25 07:03:19;;;;;;;;;24.20;23.60;;;;;19.99;52.33;99514.81;5035879;28;8868;-86
2023/05/25 07:05:48;;;;;;;;;23.80;21.40;;;;;20.16;52.03;99517.34;5055673;28;8865;-85
2023/05/25 07:08:17;;;;;;;;;19.60;19.60;;;;;20.40;51.31;99517.66;5074012;28;8876;-83
2023/05/25 07:10:47;;;;;;;;;25.00;24.40;;;;;20.41;50.73;99518.53;5056736;28;8872;-84
2023/05/25 07:13:18;;;;;;;;;22.20;20.00;;;;;20.08;52.18;99516.94;5074100;28;8886;-86
2023/05/25 07:15:47;;;;;;;;;25.60;24.00;;;;;20.45;51.25;99520.91;5057069;28;8861;-85
2023/05/25 07:18:16;;;;;;;;;23.20;22.00;;;;;18.88;55.74;99534.56;5073871;28;8846;-82
2023/05/25 07:20:45;;;;;;;;;20.60;20.60;;;;;19.16;55.05;99533.00;5056959;28;8899;-85
2023/05/25 07:23:14;;;;;;;;;19.40;19.40;;;;;19.71;53.30;99541.34;5073627;28;8838;-85
2023/05/25 07:25:43;;;;;;;;;24.40;22.20;;;;;19.81;52.82;99536.31;5080406;28;8961;-84
2023/05/25 07:28:14;;;;;;;;;21.00;20.00;;;;;19.89;52.89;99533.19;5060518;28;8912;-82
2023/05/25 07:30:43;;;;;;;;;24.00;24.00;;;;;20.21;51.44;99530.38;5057074;28;8882;-83
2023/05/25 07:33:12;;;;;;;;;23.40;22.80;;;;;19.80;52.93;99531.97;5074212;28;9386;-85
2023/05/25 07:35:40;;;;;;;;;26.20;23.60;;;;;20.01;52.22;99532.47;5073669;28;8847;-84
2023/05/25 07:38:10;;;;;;;;;20.40;18.80;;;;;19.59;53.86;99539.41;5074874;28;8862;-83
2023/05/25 07:40:38;;;;;;;;;18.40;18.40;;;;;20.25;52.54;99540.81;5057382;28;8858;-85
2023/05/25 07:43:07;;;;;;;;;22.40;21.60;;;;;20.31;52.08;99536.03;5056881;28;8878;-84
2023/05/25 07:45:38;;;;;;;;;23.60;22.60;;;;;19.84;53.57;99546.81;5055668;28;9061;-86
2023/05/25 07:48:08;;;;;;;;;22.60;22.00;;;;;19.73;53.79;99546.59;5055427;28;8848;-84
2023/05/25 07:50:37;;;;;;;;;24.00;23.00;;;;;19.27;55.10;99551.88;5058785;28;8856;-86
2023/05/25 07:53:06;;;;;;;;;23.40;23.00;;;;;18.65;57.16;99546.47;5056814;28;8975;-85
2023/05/25 07:55:35;;;;;;;;;25.20;24.00;;;;;19.10;56.15;99547.53;5055331;28;8844;-85
2023/05/25 07:58:06;;;;;;;;;21.80;21.80;;;;;18.60;57.34;99544.03;5054878;28;9654;-84
2023/05/25 08:00:35;;;;;;;;;28.60;28.40;;;;;18.52;58.34;99551.59;5054183;28;8906;-82
2023/05/25 08:03:05;;;;;;;;;25.60;24.20;;;;;18.77;57.28;99547.59;5038714;28;8844;-81
2023/05/25 08:05:34;;;;;;;;;32.50;29.25;;;;;18.83;57.45;99544.59;5005366;28;8872;-80
2023/05/25 08:08:03;;;;;;;;;30.25;30.00;;;;;18.54;58.40;99547.03;5053478;28;8827;-81
2023/05/25 08:10:31;;;;;;;;;27.80;25.40;;;;;18.76;57.66;99546.69;5060072;28;8876;-80
2023/05/25 08:13:00;;;;;;;;;26.00;24.40;;;;;18.78;57.27;99554.63;5035162;28;8893;-79
2023/05/25 08:15:30;;;;;;;;;29.00;25.00;;;;;18.56;57.79;99547.81;5051190;28;8863;-80
2023/05/25 08:17:59;;;;;;;;;31.20;26.80;;;;;18.48;58.75;99548.22;5068173;28;8859;-80
2023/05/25 08:20:30;;;;;;;;;31.20;30.00;;;;;18.22;59.61;99543.44;5068830;28;9568;-84
2023/05/25 08:23:00;;;;;;;;;29.60;26.60;;;;;18.28;57.86;99551.94;5068103;28;8874;-80
2023/05/25 08:25:29;;;;;;;;;22.40;22.40;;;;;18.89;57.59;99536.28;5069608;28;8990;-78
2023/05/25 08:27:58;;;;;;;;;25.20;24.40;;;;;18.90;58.28;99533.53;5052028;28;8858;-82
2023/05/25 08:30:27;;;;;;;;;28.20;26.80;;;;;18.98;57.55;99538.41;5051663;28;8842;-79
2023/05/25 08:32:56;;;;;;;;;27.80;25.40;;;;;19.21;56.99;99542.44;5069903;28;8862;-80
2023/05/25 08:35:24;;;;;;;;;26.60;25.40;;;;;18.91;58.16;99543.25;5068485;28;8858;-78
2023/05/25 08:37:55;;;;;;;;;33.40;30.00;;;;;18.86;57.99;99542.63;5068759;28;8873;-80
2023/05/25 08:40:28;;;;;;;;;28.00;26.60;;;;;19.17;57.51;99534.72;5051870;28;9016;-79
2023/05/25 08:42:57;;;;;;;;;29.40;26.80;;;;;18.98;58.73;99543.75;5068342;28;8850;-79
2023/05/25 08:45:26;;;;;;;;;30.40;30.40;;;;;19.39;57.53;99543.22;5069928;28;8863;-80
2023/05/25 08:48:01;;;;;;;;;28.00;28.00;;;;;19.13;57.88;99545.53;5068577;28;8835;-78
2023/05/25 08:50:32;;;;;;;;;32.80;31.20;;;;;19.33;57.28;99538.25;5052522;28;8870;-80
2023/05/25 08:53:06;;;;;;;;;26.20;25.80;;;;;20.18;55.06;99527.91;5052272;28;9018;-78
2023/05/25 08:55:39;;;;;;;;;31.20;30.00;;;;;19.78;55.15;99532.97;5067845;28;8854;-79
2023/05/25 08:58:16;;;;;;;;;33.25;30.00;;;;;19.88;54.79;99540.34;5069424;28;8929;-78
2023/05/25 09:00:54;;;;;;;;;32.40;30.80;;;;;20.21;54.30;99539.25;5068694;28;8889;-80
2023/05/25 09:03:24;;;;;;;;;32.50;31.50;;;;;19.68;55.71;99538.84;5069287;28;8866;-78
2023/05/25 09:05:54;;;;;;;;;27.00;26.80;;;;;19.84;55.78;99543.28;4998616;28;8950;-81
2023/05/25 09:08:26;;;;;;;;;28.80;27.80;;;;;19.74;55.92;99537.63;5031624;28;8941;-80
2023/05/25 09:10:56;;;;;;;;;34.80;29.60;;;;;19.23;57.41;99537.03;5049283;28;8865;-81
2023/05/25 09:13:26;;;;;;;;;33.50;30.50;;;;;19.55;56.60;99537.00;5049556;28;8899;-79
2023/05/25 09:15:55;;;;;;;;;28.75;28.50;;;;;19.46;56.65;99543.69;5049242;28;8864;-81
2023/05/25 09:18:24;;;;;;;;;32.75;29.50;;;;;19.41;55.55;99548.47;5047473;28;8841;-79
2023/05/25 09:20:53;;;;;;;;;27.75;26.25;;;;;19.41;55.49;99543.97;5006782;28;8870;-80
2023/05/25 09:23:25;;;;;;;;;26.40;26.40;;;;;20.00;52.73;99538.75;5008256;28;8874;-81
2023/05/25 09:25:54;;;;;;;;;27.50;24.25;;;;;20.15;53.04;99530.78;4991449;28;8862;-78
2023/05/25 09:28:23;;;;;;;;;24.40;23.80;;;;;20.80;50.84;99530.28;5007357;28;8940;-81
2023/05/25 09:30:56;;;;;;;;;19.00;19.00;;;;;21.38;48.11;99531.88;4990023;28;8866;-79
2023/05/25 09:33:26;;;;;;;;;20.40;19.40;;;;;21.74;47.03;99537.56;5019767;28;9017;-79
2023/05/25 09:35:55;;;;;;;;;20.20;19.40;;;;;21.92;45.83;99528.31;5028967;28;8952;-82
2023/05/25 09:38:26;;;;;;;;;18.00;18.00;;;;;22.15;45.21;99532.06;5045669;28;8847;-80
2023/05/25 09:40:55;;;;;;;;;20.80;20.60;;;;;22.01;45.59;99540.16;5012651;28;8960;-80
2023/05/25 09:43:25;;;;;;;;;18.80;17.80;;;;;21.87;45.21;99533.09;5028780;28;9013;-79
2023/05/25 09:46:07;;;;;;;;;18.00;17.20;;;;;21.23;46.04;99535.56;5045561;28;8886;-80
2023/05/25 09:48:37;;;;;;;;;17.40;16.60;;;;;21.67;45.08;99523.75;5028999;28;9558;-84
2023/05/25 09:51:07;;;;;;;;;14.80;14.80;;;;;22.30;44.52;99524.81;5030587;28;9636;-83
2023/05/25 09:53:37;;;;;;;;;18.80;17.60;;;;;22.42;44.15;99526.59;5063663;28;8852;-79
2023/05/25 09:56:06;;;;;;;;;14.80;14.80;;;;;22.75;42.50;99522.50;5029184;28;8878;-79
2023/05/25 09:58:36;;;;;;;;;17.00;17.00;;;;;23.05;41.78;99523.91;5047614;28;9634;-80
2023/05/25 10:01:05;;;;;;;;;19.00;18.00;;;;;21.93;44.13;99540.69;5050409;28;8864;-77
2023/05/25 10:03:35;;;;;;;;;19.20;18.80;;;;;21.32;45.67;99534.97;5046095;28;8870;-79
2023/05/25 10:06:05;;;;;;;;;16.00;15.20;;;;;22.17;44.07;99526.59;5029375;28;8854;-82
2023/05/25 10:08:34;;;;;;;;;15.60;15.00;;;;;22.63;43.38;99519.84;4996222;28;8869;-82
2023/05/25 10:11:05;;;;;;;;;18.60;18.60;;;;;22.41;43.02;99532.94;5035930;28;9037;-81
2023/05/25 10:13:36;;;;;;;;;16.80;16.80;;;;;22.87;43.05;99522.56;5028991;28;9971;-79
2023/05/25 10:16:11;;;;;;;;;18.40;15.60;;;;;22.32;42.93;99535.41;5037557;28;9047;-82
2023/05/25 10:18:47;;;;;;;;;18.40;17.80;;;;;21.80;45.66;99516.59;5026045;28;8848;-80
2023/05/25 10:21:18;;;;;;;;;17.60;16.60;;;;;22.29;44.89;99516.88;5025943;28;8856;-80
2023/05/25 10:23:50;;;;;;;;;12.20;12.20;;;;;22.81;42.72;99518.50;5025817;28;8957;-80
2023/05/25 10:26:26;;;;;;;;;17.40;17.40;;;;;22.67;41.72;99524.84;5009805;28;8883;-79
2023/05/25 10:29:00;;;;;;;;;21.80;20.40;;;;;21.30;46.50;99522.66;5009174;28;8844;-79
2023/05/25 10:31:29;;;;;;;;;20.20;20.20;;;;;20.82;47.92;99523.03;4977531;28;8849;-82
2023/05/25 10:33:59;;;;;;;;;17.40;16.20;;;;;21.21;45.44;99524.13;4979415;28;9017;-80
2023/05/25 10:36:29;;;;;;;;;17.80;17.80;;;;;21.23;44.90;99516.84;4962483;28;8950;-82
2023/05/25 10:38:59;;;;;;;;;18.40;17.00;;;;;21.45;43.83;99509.13;5009912;28;8856;-82
2023/05/25 10:41:30;;;;;;;;;18.00;18.00;;;;;21.38;44.54;99504.28;4993957;28;8888;-81
2023/05/25 10:44:00;;;;;;;;;14.80;14.40;;;;;22.15;42.67;99509.78;4990891;28;8892;-82
2023/05/25 10:46:29;;;;;;;;;20.80;20.80;;;;;22.67;41.58;99500.72;5031055;28;8931;-84
2023/05/25 10:49:01;;;;;;;;;16.80;16.80;;;;;22.98;41.08;99493.19;5047558;28;8868;-85
2023/05/25 10:51:39;;;;;;;;;18.40;17.80;;;;;22.63;40.79;99493.88;5031519;28;8853;-82
2023/05/25 10:54:13;;;;;;;;;14.60;14.00;;;;;23.14;39.72;99496.41;5031665;28;8883;-81
2023/05/25 10:57:08;;;;;;;;;17.80;17.60;;;;;21.89;40.60;99506.25;5050223;28;8861;-81
2023/05/25 10:59:43;;;;;;;;;18.40;16.60;;;;;22.59;40.13;99492.41;5048491;28;8865;-81
2023/05/25 11:02:12;;;;;;;;;14.60;13.80;;;;;23.18;38.82;99494.38;5048506;28;9633;-82
2023/05/25 11:04:43;;;;;;;;;14.00;14.00;;;;;22.75;39.25;99490.34;5027625;28;8848;-84
2023/05/25 11:07:15;;;;;;;;;14.00;14.00;;;;;22.54;39.59;99487.38;5028128;28;8863;-85
2023/05/25 11:09:57;;;;;;;;;16.00;15.00;;;;;22.66;40.27;99484.78;4993537;28;8991;-86
2023/05/25 11:12:27;;;;;;;;;20.80;20.80;;;;;22.99;40.00;99484.16;5027846;28;9024;-82
2023/05/25 11:15:15;;;;;;;;;19.80;19.40;;;;;22.42;41.43;99480.22;5045486;28;8949;-82
2023/05/25 11:17:59;;;;;;;;;17.00;16.80;;;;;22.31;42.04;99480.97;5012702;28;8889;-83
2023/05/25 11:20:29;;;;;;;;;17.80;17.40;;;;;23.07;40.73;99487.16;5045247;28;8908;-85
2023/05/25 11:22:58;;;;;;;;;20.80;20.20;;;;;22.02;42.59;99483.00;5028418;28;8869;-83
2023/05/25 11:25:38;;;;;;;;;15.20;15.20;;;;;22.66;41.66;99482.13;5027919;28;8864;-83
2023/05/25 11:28:11;;;;;;;;;17.20;17.20;;;;;22.99;41.44;99482.31;5044846;28;8853;-83
2023/05/25 11:30:41;;;;;;;;;25.20;24.40;;;;;23.14;41.93;99479.47;5044849;28;8943;-82
2023/05/25 11:33:12;;;;;;;;;21.60;21.00;;;;;23.21;41.05;99482.59;5012757;28;9037;-82
2023/05/25 11:35:43;;;;;;;;;17.60;16.80;;;;;23.83;40.76;99471.59;5045690;28;8850;-82
2023/05/25 11:38:14;;;;;;;;;18.60;18.40;;;;;24.21;39.91;99467.75;5068775;28;8854;-81
2023/05/25 11:40:43;;;;;;;;;21.80;21.80;;;;;22.23;42.78;99475.28;5049335;28;9032;-82